createdAt,value
2018-06-01T00:01:05.701Z,22.19
2018-06-01T00:03:33.960Z,22.17
2018-06-01T00:06:02.226Z,22.14
2018-06-01T00:08:30.837Z,22.13
2018-06-01T00:10:59.131Z,22.16
2018-06-01T00:13:27.387Z,22.09
2018-06-01T00:15:55.750Z,22.09
2018-06-01T00:18:24.786Z,22.10
2018-06-01T00:20:53.855Z,22.13
2018-06-01T00:23:22.902Z,22.08
2018-06-01T00:25:51.212Z,22.09
2018-06-01T00:28:19.505Z,22.02
2018-06-01T00:30:47.777Z,22.02
2018-06-01T00:33:16.094Z,22.00
2018-06-01T00:35:44.381Z,22.00
2018-06-01T00:38:12.674Z,22.00
2018-06-01T00:40:40.924Z,21.97
2018-06-01T00:43:09.253Z,21.98
2018-06-01T00:45:37.534Z,21.96
2018-06-01T00:48:05.889Z,22.09
2018-06-01T00:50:34.138Z,22.11
2018-06-01T00:53:02.411Z,22.04
2018-06-01T00:55:30.848Z,22.03
2018-06-01T00:57:59.160Z,21.95
2018-06-01T01:00:27.432Z,21.95
2018-06-01T01:02:55.715Z,21.86
2018-06-01T01:05:24.762Z,21.84
2018-06-01T01:07:53.032Z,21.79
2018-06-01T01:10:21.334Z,21.81
2018-06-01T01:12:49.635Z,21.76
2018-06-01T01:15:17.952Z,21.76
2018-06-01T01:17:46.212Z,21.73
2018-06-01T01:20:14.500Z,21.67
2018-06-01T01:22:42.794Z,21.65
2018-06-01T01:25:11.076Z,21.63
2018-06-01T01:27:39.356Z,21.61
2018-06-01T01:30:07.646Z,21.58
2018-06-01T01:32:35.898Z,21.58
2018-06-01T01:35:04.156Z,21.56
2018-06-01T01:37:33.233Z,21.57
2018-06-01T01:40:01.511Z,21.59
2018-06-01T01:42:30.551Z,21.61
2018-06-01T01:44:58.845Z,21.60
2018-06-01T01:47:27.178Z,21.75
2018-06-01T01:49:55.444Z,21.74
2018-06-01T01:52:23.725Z,21.75
2018-06-01T01:54:52.129Z,21.71
2018-06-01T01:57:20.397Z,21.77
2018-06-01T01:59:48.685Z,21.75
2018-06-01T02:02:16.972Z,21.70
2018-06-01T02:04:45.254Z,21.69
2018-06-01T02:07:13.535Z,21.65
2018-06-01T02:09:41.802Z,21.68
2018-06-01T02:12:10.846Z,21.73
2018-06-01T02:14:39.127Z,21.73
2018-06-01T02:17:07.387Z,21.67
2018-06-01T02:19:36.426Z,21.71
2018-06-01T02:22:04.731Z,21.61
2018-06-01T02:24:32.991Z,21.65
2018-06-01T02:27:01.260Z,21.60
2018-06-01T02:29:29.542Z,21.58
2018-06-01T02:31:57.805Z,21.48
2018-06-01T02:34:26.096Z,21.48
2018-06-01T02:36:54.375Z,21.52
2018-06-01T02:39:22.632Z,21.50
2018-06-01T02:41:51.689Z,21.48
2018-06-01T02:44:19.991Z,21.46
2018-06-01T02:46:48.255Z,21.42
2018-06-01T02:49:16.568Z,21.41
2018-06-01T02:51:44.848Z,21.40
2018-06-01T02:54:13.119Z,21.31
2018-06-01T02:56:41.375Z,21.36
2018-06-01T02:59:10.436Z,21.30
2018-06-01T03:01:38.697Z,21.26
2018-06-01T03:04:06.982Z,21.25
2018-06-01T03:06:52.808Z,21.26
2018-06-01T03:09:21.090Z,21.28
2018-06-01T03:11:49.374Z,21.29
2018-06-01T03:14:17.675Z,21.32
2018-06-01T03:16:45.952Z,21.37
2018-06-01T03:19:14.226Z,21.30
2018-06-01T03:21:43.248Z,21.28
2018-06-01T03:24:11.543Z,21.28
2018-06-01T03:26:39.887Z,21.28
2018-06-01T03:29:08.182Z,21.23
2018-06-01T03:31:36.444Z,21.24
2018-06-01T03:34:04.720Z,21.25
2018-06-01T03:36:33.016Z,21.28
2018-06-01T03:39:01.295Z,21.28
2018-06-01T03:41:29.580Z,21.29
2018-06-01T03:43:57.960Z,21.24
2018-06-01T03:46:26.980Z,21.20
2018-06-01T03:48:55.236Z,21.13
2018-06-01T03:51:24.294Z,21.06
2018-06-01T03:53:52.554Z,21.02
2018-06-01T03:56:20.828Z,20.98
2018-06-01T03:58:49.931Z,20.92
2018-06-01T04:01:18.189Z,20.91
2018-06-01T04:03:46.478Z,20.88
2018-06-01T04:06:14.771Z,20.88
2018-06-01T04:08:43.063Z,20.87
2018-06-01T04:11:11.411Z,20.90
2018-06-01T04:13:40.470Z,20.87
2018-06-01T04:16:08.746Z,20.89
2018-06-01T04:18:37.018Z,20.93
2018-06-01T04:21:05.303Z,20.92
2018-06-01T04:23:33.562Z,20.85
2018-06-01T04:26:02.626Z,20.86
2018-06-01T04:28:32.437Z,20.86
2018-06-01T04:31:00.689Z,20.79
2018-06-01T04:33:29.713Z,20.75
2018-06-01T04:35:58.002Z,20.65
2018-06-01T04:38:26.277Z,20.60
2018-06-01T04:40:55.305Z,20.55
2018-06-01T04:43:23.588Z,20.58
2018-06-01T04:45:51.861Z,20.71
2018-06-01T04:48:20.894Z,20.57
2018-06-01T04:50:49.231Z,20.58
2018-06-01T04:53:18.317Z,20.55
2018-06-01T04:55:46.595Z,20.46
2018-06-01T04:58:14.892Z,20.45
2018-06-01T05:00:43.168Z,20.40
2018-06-01T05:03:11.437Z,20.37
2018-06-01T05:05:40.524Z,20.28
2018-06-01T05:08:08.776Z,20.15
2018-06-01T05:10:37.035Z,20.17
2018-06-01T05:13:05.321Z,20.09
2018-06-01T05:15:33.599Z,19.92
2018-06-01T05:18:02.634Z,19.81
2018-06-01T05:20:30.906Z,19.79
2018-06-01T05:22:59.197Z,19.82
2018-06-01T05:25:28.243Z,19.80
2018-06-01T05:27:56.574Z,19.73
2018-06-01T05:30:24.827Z,19.63
2018-06-01T05:32:53.110Z,19.63
2018-06-01T05:35:21.414Z,19.59
2018-06-01T05:37:49.665Z,19.65
2018-06-01T05:40:18.037Z,19.58
2018-06-01T05:42:47.248Z,19.60
2018-06-01T05:45:16.306Z,19.60
2018-06-01T05:47:44.576Z,19.62
2018-06-01T05:50:12.960Z,19.67
2018-06-01T05:52:41.242Z,19.70
2018-06-01T05:55:09.532Z,19.73
2018-06-01T05:57:37.812Z,19.71
2018-06-01T06:00:06.871Z,19.78
2018-06-01T06:02:35.166Z,19.81
2018-06-01T06:05:03.453Z,19.81
2018-06-01T06:07:31.818Z,19.78
2018-06-01T06:10:00.110Z,19.80
2018-06-01T06:12:28.390Z,19.80
2018-06-01T06:14:56.668Z,19.81
2018-06-01T06:17:24.955Z,19.85
2018-06-01T06:19:54.060Z,19.91
2018-06-01T06:22:23.090Z,19.80
2018-06-01T06:24:51.445Z,19.81
2018-06-01T06:27:19.753Z,19.77
2018-06-01T06:29:48.819Z,19.73
2018-06-01T06:32:17.892Z,19.69
2018-06-01T06:34:46.276Z,19.65
2018-06-01T06:37:14.566Z,19.62
2018-06-01T06:39:42.846Z,19.60
2018-06-01T06:42:11.136Z,19.61
2018-06-01T06:44:40.171Z,19.59
2018-06-01T06:47:08.437Z,19.58
2018-06-01T06:49:37.554Z,19.55
2018-06-01T06:52:06.611Z,19.61
2018-06-01T06:54:34.900Z,19.63
2018-06-01T06:57:03.194Z,19.65
2018-06-01T06:59:31.471Z,19.67
2018-06-01T07:01:59.757Z,19.72
2018-06-01T07:04:28.039Z,19.80
2018-06-01T07:06:56.310Z,19.87
2018-06-01T07:09:24.580Z,19.97
2018-06-01T07:11:52.847Z,20.06
2018-06-01T07:14:21.147Z,20.17
2018-06-01T07:16:49.464Z,20.31
2018-06-01T07:19:17.771Z,20.39
2018-06-01T07:21:46.800Z,20.42
2018-06-01T07:24:15.047Z,20.34
2018-06-01T07:26:43.339Z,20.35
2018-06-01T07:29:11.641Z,20.40
2018-06-01T07:31:40.005Z,20.42
2018-06-01T07:34:09.061Z,20.35
2018-06-01T07:36:37.346Z,20.39
2018-06-01T07:39:06.436Z,20.41
2018-06-01T07:41:34.728Z,20.48
2018-06-01T07:44:03.014Z,20.46
2018-06-01T07:46:31.267Z,20.38
2018-06-01T07:48:59.569Z,20.35
2018-06-01T07:51:27.850Z,20.37
2018-06-01T07:53:56.112Z,20.36
2018-06-01T07:56:24.401Z,20.38
2018-06-01T07:58:52.672Z,20.39
2018-06-01T08:01:20.983Z,20.41
2018-06-01T08:03:49.291Z,20.38
2018-06-01T08:06:17.583Z,20.35
2018-06-01T08:08:45.855Z,20.29
2018-06-01T08:11:14.162Z,20.25
2018-06-01T08:13:42.496Z,20.14
2018-06-01T08:16:11.624Z,20.13
2018-06-01T08:18:39.913Z,20.11
2018-06-01T08:21:08.190Z,20.08
2018-06-01T08:23:36.452Z,20.11
2018-06-01T08:26:04.746Z,20.08
2018-06-01T08:28:34.773Z,20.07
2018-06-01T08:31:03.824Z,20.13
2018-06-01T08:33:32.118Z,20.13
2018-06-01T08:36:00.386Z,20.05
2018-06-01T08:38:28.670Z,19.98
2018-06-01T08:40:57.719Z,19.98
2018-06-01T08:43:26.008Z,19.98
2018-06-01T08:45:54.268Z,19.95
2018-06-01T08:48:23.375Z,19.95
2018-06-01T08:50:52.417Z,19.90
2018-06-01T08:53:20.758Z,19.87
2018-06-01T08:55:49.838Z,19.89
2018-06-01T08:58:18.103Z,19.96
2018-06-01T09:00:46.388Z,19.95
2018-06-01T09:03:14.689Z,19.93
2018-06-01T09:05:42.961Z,19.94
2018-06-01T09:08:11.251Z,19.98
2018-06-01T09:10:39.542Z,19.98
2018-06-01T09:13:07.805Z,19.98
2018-06-01T09:15:36.832Z,20.00
2018-06-01T09:18:05.128Z,20.02
2018-06-01T09:20:33.495Z,20.07
2018-06-01T09:23:02.538Z,20.13
2018-06-01T09:25:30.817Z,20.21
2018-06-01T09:27:59.125Z,20.30
2018-06-01T09:30:28.374Z,20.40
2018-06-01T09:32:56.655Z,20.42
2018-06-01T09:35:25.152Z,20.48
2018-06-01T09:37:53.430Z,20.47
2018-06-01T09:40:21.719Z,20.48
2018-06-01T09:42:50.014Z,20.43
2018-06-01T09:45:18.461Z,20.43
2018-06-01T09:47:46.771Z,20.45
2018-06-01T09:50:15.047Z,20.49
2018-06-01T09:52:43.316Z,20.59
2018-06-01T09:55:12.379Z,20.70
2018-06-01T09:57:40.639Z,20.69
2018-06-01T10:00:08.911Z,20.68
2018-06-01T10:02:37.249Z,20.72
2018-06-01T10:05:05.511Z,20.78
2018-06-01T10:07:33.771Z,20.90
2018-06-01T10:10:08.323Z,20.96
2018-06-01T10:12:36.610Z,21.04
2018-06-01T10:15:04.889Z,21.10
2018-06-01T10:17:33.942Z,21.13
2018-06-01T10:20:02.200Z,21.13
2018-06-01T10:22:31.374Z,21.06
2018-06-01T10:24:59.679Z,21.07
2018-06-01T10:27:28.723Z,21.02
2018-06-01T10:29:57.001Z,21.01
2018-06-01T10:32:25.307Z,20.90
2018-06-01T10:34:53.563Z,20.87
2018-06-01T10:37:22.612Z,20.86
2018-06-01T10:39:50.941Z,20.81
2018-06-01T10:42:19.329Z,20.80
2018-06-01T10:44:47.645Z,20.83
2018-06-01T10:47:16.829Z,20.82
2018-06-01T10:49:45.097Z,20.89
2018-06-01T10:52:13.373Z,20.94
2018-06-01T10:54:41.672Z,20.97
2018-06-01T10:57:09.946Z,20.99
2018-06-01T10:59:38.223Z,21.01
2018-06-01T11:02:07.251Z,21.05
2018-06-01T11:04:35.777Z,21.12
2018-06-01T11:07:04.069Z,21.23
2018-06-01T11:09:34.427Z,21.26
2018-06-01T11:12:04.209Z,21.30
2018-06-01T11:14:32.633Z,21.28
2018-06-01T11:17:00.882Z,21.41
2018-06-01T11:19:29.268Z,21.44
2018-06-01T11:21:57.519Z,21.56
2018-06-01T11:24:25.827Z,21.62
2018-06-01T11:26:54.860Z,21.71
2018-06-01T11:31:55.968Z,21.55
2018-06-01T11:34:24.316Z,21.52
2018-06-01T11:36:53.367Z,21.66
2018-06-01T11:39:21.664Z,21.82
2018-06-01T11:41:49.971Z,21.92
2018-06-01T11:44:18.251Z,22.01
2018-06-01T11:46:46.595Z,22.19
2018-06-01T11:49:14.880Z,22.26
2018-06-01T11:51:43.935Z,22.20
2018-06-01T11:54:12.249Z,22.03
2018-06-01T11:56:40.539Z,21.91
2018-06-01T11:59:09.013Z,21.90
2018-06-01T12:01:37.291Z,22.03
2018-06-01T12:04:05.552Z,22.01
2018-06-01T12:06:33.851Z,21.99
2018-06-01T12:09:02.156Z,22.02
2018-06-01T12:11:30.410Z,22.08
2018-06-01T12:13:59.493Z,22.05
2018-06-01T12:16:27.763Z,22.12
2018-06-01T12:18:56.024Z,22.42
2018-06-01T12:21:24.303Z,22.55
2018-06-01T12:23:52.613Z,22.66
2018-06-01T12:26:20.992Z,22.74
2018-06-01T12:28:49.297Z,22.60
2018-06-01T12:31:17.612Z,22.56
2018-06-01T12:33:45.888Z,22.49
2018-06-01T12:36:14.155Z,22.49
2018-06-01T12:38:42.458Z,22.57
2018-06-01T12:41:10.724Z,22.50
2018-06-01T12:43:39.770Z,22.35
2018-06-01T12:46:08.050Z,22.37
2018-06-01T12:48:36.319Z,22.32
2018-06-01T12:51:04.583Z,22.35
2018-06-01T12:53:33.622Z,22.21
2018-06-01T12:56:01.907Z,22.15
2018-06-01T12:58:30.191Z,22.03
2018-06-01T13:00:58.484Z,21.94
2018-06-01T13:03:26.762Z,21.79
2018-06-01T13:05:55.059Z,21.91
2018-06-01T13:08:24.117Z,21.95
2018-06-01T13:10:52.371Z,21.74
2018-06-01T13:13:20.680Z,21.63
2018-06-01T13:15:48.985Z,21.55
2018-06-01T13:18:17.438Z,21.51
2018-06-01T13:20:45.763Z,21.54
2018-06-01T13:23:14.026Z,21.60
2018-06-01T13:25:42.317Z,21.60
2018-06-01T13:28:10.613Z,21.62
2018-06-01T13:30:38.885Z,21.53
2018-06-01T13:33:07.911Z,21.58
2018-06-01T13:35:36.168Z,21.55
2018-06-01T13:38:05.212Z,21.41
2018-06-01T13:40:33.883Z,21.30
2018-06-01T13:43:02.919Z,21.25
2018-06-01T13:45:31.194Z,21.14
2018-06-01T13:47:59.488Z,21.16
2018-06-01T13:50:27.752Z,21.21
2018-06-01T13:52:56.795Z,21.63
2018-06-01T13:55:25.097Z,21.61
2018-06-01T13:57:53.393Z,21.83
2018-06-01T14:00:21.863Z,21.94
2018-06-01T14:02:50.924Z,22.21
2018-06-01T14:05:19.219Z,22.35
2018-06-01T14:07:47.546Z,22.20
2018-06-01T14:10:15.833Z,21.96
2018-06-01T14:12:44.874Z,21.99
2018-06-01T14:15:13.164Z,21.75
2018-06-01T14:17:41.424Z,21.66
2018-06-01T14:20:10.443Z,21.52
2018-06-01T14:22:38.755Z,21.44
2018-06-01T14:25:07.024Z,21.49
2018-06-01T14:27:35.284Z,21.56
2018-06-01T14:30:04.355Z,21.41
2018-06-01T14:32:32.627Z,21.47
2018-06-01T14:35:00.977Z,21.32
2018-06-01T14:37:29.298Z,21.42
2018-06-01T14:39:57.624Z,21.14
2018-06-01T14:42:25.898Z,21.05
2018-06-01T14:44:54.196Z,21.35
2018-06-01T14:47:22.549Z,21.19
2018-06-01T14:49:51.597Z,20.93
2018-06-01T14:52:19.957Z,20.87
2018-06-01T14:54:48.241Z,20.83
2018-06-01T14:57:16.513Z,20.80
2018-06-01T14:59:45.566Z,20.71
2018-06-01T15:02:13.839Z,20.47
2018-06-01T15:04:42.102Z,20.43
2018-06-01T15:07:11.135Z,20.22
2018-06-01T15:09:39.416Z,20.08
2018-06-01T15:12:07.732Z,20.32
2018-06-01T15:14:36.008Z,20.03
2018-06-01T15:17:04.376Z,19.91
2018-06-01T15:19:32.662Z,19.76
2018-06-01T15:22:01.729Z,19.65
2018-06-01T15:24:29.993Z,19.55
2018-06-01T15:26:58.287Z,19.53
2018-06-01T15:29:26.580Z,19.52
2018-06-01T15:31:54.853Z,19.50
2018-06-01T15:34:23.240Z,19.50
2018-06-01T15:36:51.513Z,19.49
2018-06-01T15:39:20.586Z,19.46
2018-06-01T15:41:48.851Z,19.48
2018-06-01T15:44:17.135Z,19.55
2018-06-01T15:46:45.409Z,19.52
2018-06-01T15:49:13.874Z,19.53
2018-06-01T15:51:42.132Z,19.57
2018-06-01T15:54:10.397Z,19.68
2018-06-01T15:56:38.663Z,19.74
2018-06-01T15:59:06.958Z,19.81
2018-06-01T16:01:35.219Z,20.17
2018-06-01T16:04:04.266Z,19.91
2018-06-01T16:06:32.532Z,19.83
2018-06-01T16:09:01.582Z,19.88
2018-06-01T16:11:29.859Z,19.79
2018-06-01T16:13:58.137Z,19.80
2018-06-01T16:16:26.417Z,19.73
2018-06-01T16:18:56.516Z,19.74
2018-06-01T16:21:24.807Z,19.68
2018-06-01T16:23:53.079Z,19.73
2018-06-01T16:26:23.043Z,19.84
2018-06-01T16:28:51.696Z,19.87
2018-06-01T16:31:19.994Z,19.83
2018-06-01T16:33:48.266Z,19.75
2018-06-01T16:36:16.591Z,19.74
2018-06-01T16:38:44.925Z,19.72
2018-06-01T16:41:13.970Z,19.64
2018-06-01T16:43:42.240Z,19.72
2018-06-01T16:46:10.499Z,19.66
2018-06-01T16:48:40.210Z,19.75
2018-06-01T16:51:08.483Z,19.73
2018-06-01T16:53:36.731Z,19.81
2018-06-01T16:56:05.034Z,19.68
2018-06-01T16:58:33.337Z,19.64
2018-06-01T17:01:01.592Z,19.56
2018-06-01T17:03:29.855Z,19.54
2018-06-01T17:05:58.128Z,19.51
2018-06-01T17:08:26.410Z,19.48
2018-06-01T17:10:54.677Z,19.45
2018-06-01T17:13:23.050Z,19.40
2018-06-01T17:15:52.076Z,19.37
2018-06-01T17:18:20.389Z,19.30
2018-06-01T17:20:48.674Z,19.30
2018-06-01T17:23:17.260Z,19.31
2018-06-01T17:25:45.518Z,19.29
2018-06-01T17:28:13.824Z,19.26
2018-06-01T17:30:42.071Z,19.24
2018-06-01T17:33:10.366Z,19.22
2018-06-01T17:35:38.789Z,19.20
2018-06-01T17:38:07.831Z,19.18
2018-06-01T17:40:36.096Z,19.20
2018-06-01T17:43:04.386Z,19.17
2018-06-01T17:45:32.655Z,19.20
2018-06-01T17:48:01.779Z,19.13
2018-06-01T17:50:30.073Z,19.09
2018-06-01T17:52:58.348Z,19.05
2018-06-01T17:55:27.389Z,18.97
2018-06-01T17:57:55.701Z,18.91
2018-06-01T18:00:23.948Z,18.89
2018-06-01T18:02:52.212Z,18.84
2018-06-01T18:05:21.272Z,18.84
2018-06-01T18:07:49.541Z,18.81
2018-06-01T18:10:17.858Z,18.79
2018-06-01T18:12:46.187Z,18.76
2018-06-01T18:15:14.448Z,18.77
2018-06-01T18:17:42.715Z,18.76
2018-06-01T18:20:11.013Z,18.73
2018-06-01T18:22:39.325Z,18.74
2018-06-01T18:25:07.594Z,18.75
2018-06-01T18:27:36.758Z,18.75
2018-06-01T18:30:05.775Z,18.77
2018-06-01T18:32:34.073Z,18.73
2018-06-01T18:35:02.412Z,18.78
2018-06-01T18:37:30.689Z,18.76
2018-06-01T18:39:58.990Z,18.76
2018-06-01T18:42:27.314Z,18.78
2018-06-01T18:44:56.371Z,18.78
2018-06-01T18:47:24.663Z,18.78
2018-06-01T18:49:53.254Z,18.80
2018-06-01T18:52:21.771Z,18.86
2018-06-01T18:54:50.068Z,18.86
2018-06-01T18:57:18.394Z,18.88
2018-06-01T18:59:47.465Z,18.86
2018-06-01T19:02:15.732Z,18.88
2018-06-01T19:04:44.099Z,18.87
2018-06-01T19:07:12.362Z,18.83
2018-06-01T19:09:40.626Z,18.83
2018-06-01T19:12:08.897Z,18.79
2018-06-01T19:14:37.205Z,18.79
2018-06-01T19:17:05.524Z,18.82
2018-06-01T19:19:33.804Z,18.83
2018-06-01T19:22:02.074Z,18.76
2018-06-01T19:24:30.354Z,18.76
2018-06-01T19:26:58.657Z,18.75
2018-06-01T19:29:26.917Z,18.76
2018-06-01T19:31:55.242Z,18.72
2018-06-01T19:34:23.524Z,18.70
2018-06-01T19:36:51.799Z,18.72
2018-06-01T19:39:20.089Z,18.71
2018-06-01T19:41:48.428Z,18.71
2018-06-01T19:44:16.687Z,18.68
2018-06-01T19:46:45.097Z,18.72
2018-06-01T19:49:13.360Z,18.70
2018-06-01T19:51:41.645Z,18.68
2018-06-01T19:54:09.920Z,18.65
2018-06-01T19:56:38.216Z,18.60
2018-06-01T19:59:06.496Z,18.62
2018-06-01T20:01:34.789Z,18.57
2018-06-01T20:04:03.074Z,18.59
2018-06-01T20:06:31.350Z,18.56
2018-06-01T20:09:00.389Z,18.59
2018-06-01T20:11:28.672Z,18.61
2018-06-01T20:13:57.053Z,18.64
2018-06-01T20:16:25.405Z,18.52
2018-06-01T20:18:53.704Z,18.55
2018-06-01T20:21:22.007Z,18.50
2018-06-01T20:23:50.309Z,18.46
2018-06-01T20:26:19.409Z,18.44
2018-06-01T20:28:47.753Z,18.39
2018-06-01T20:31:16.816Z,18.39
2018-06-01T20:33:45.130Z,18.39
2018-06-01T20:36:14.223Z,18.36
2018-06-01T20:38:42.479Z,18.37
2018-06-01T20:41:11.029Z,18.35
2018-06-01T20:43:39.322Z,18.36
2018-06-01T20:46:07.595Z,18.36
2018-06-01T20:48:35.882Z,18.38
2018-06-01T20:51:04.137Z,18.36
2018-06-01T20:53:33.204Z,18.34
2018-06-01T20:56:01.489Z,18.35
2018-06-01T20:58:29.786Z,18.34
2018-06-01T21:00:58.080Z,18.37
2018-06-01T21:03:26.355Z,18.37
2018-06-01T21:05:54.642Z,18.39
2018-06-01T21:08:22.977Z,18.40
2018-06-01T21:10:51.323Z,18.38
2018-06-01T21:13:19.620Z,18.38
2018-06-01T21:15:47.933Z,18.39
2018-06-01T21:18:16.212Z,18.34
2018-06-01T21:20:44.536Z,18.35
2018-06-01T21:23:12.784Z,18.36
2018-06-01T21:25:41.156Z,18.34
2018-06-01T21:28:09.433Z,18.36
2018-06-01T21:30:38.456Z,18.35
2018-06-01T21:33:06.727Z,18.34
2018-06-01T21:35:35.042Z,18.37
2018-06-01T21:38:03.311Z,18.38
2018-06-01T21:40:32.343Z,18.38
2018-06-01T21:43:00.721Z,18.38
2018-06-01T21:45:29.768Z,18.39
2018-06-01T21:47:58.096Z,18.40
2018-06-01T21:50:26.386Z,18.37
2018-06-01T21:52:54.688Z,18.38
2018-06-01T21:55:23.020Z,18.40
2018-06-01T21:57:51.374Z,18.35
2018-06-01T22:00:20.473Z,18.35
2018-06-01T22:02:49.569Z,18.34
2018-06-01T22:05:17.916Z,18.32
2018-06-01T22:07:46.292Z,18.30
2018-06-01T22:10:14.663Z,18.26
2018-06-01T22:12:43.707Z,18.26
2018-06-01T22:15:11.989Z,18.28
2018-06-01T22:17:40.268Z,18.26
2018-06-01T22:20:09.445Z,18.25
2018-06-01T22:22:37.769Z,18.22
2018-06-01T22:25:06.036Z,18.22
2018-06-01T22:27:35.174Z,18.26
2018-06-01T22:30:03.438Z,18.24
2018-06-01T22:32:32.503Z,18.24
2018-06-01T22:35:00.786Z,18.22
2018-06-01T22:37:29.062Z,18.19
2018-06-01T22:39:57.348Z,18.19
2018-06-01T22:42:25.654Z,18.17
2018-06-01T22:44:53.890Z,18.17
2018-06-01T22:47:22.184Z,18.13
2018-06-01T22:49:51.245Z,18.13
2018-06-01T22:52:19.505Z,18.15
2018-06-01T22:54:48.527Z,18.14
2018-06-01T22:57:16.794Z,18.13
2018-06-01T22:59:45.102Z,18.11
2018-06-01T23:02:13.410Z,18.06
2018-06-01T23:04:41.660Z,18.08
2018-06-01T23:07:10.714Z,18.09
2018-06-01T23:09:39.047Z,18.12
2018-06-01T23:12:07.366Z,18.12
2018-06-01T23:14:35.691Z,18.11
2018-06-01T23:17:04.719Z,18.07
2018-06-01T23:19:32.989Z,18.07
2018-06-01T23:22:01.263Z,18.05
2018-06-01T23:24:29.554Z,18.15
2018-06-01T23:26:57.826Z,18.14
2018-06-01T23:29:26.087Z,18.12
2018-06-01T23:31:55.187Z,18.10
2018-06-01T23:34:23.481Z,18.12
2018-06-01T23:36:51.759Z,18.15
2018-06-01T23:39:20.095Z,18.18
2018-06-01T23:41:48.383Z,18.16
2018-06-01T23:44:16.724Z,18.14
2018-06-01T23:46:45.048Z,18.10
2018-06-01T23:49:14.091Z,18.11
2018-06-01T23:51:42.423Z,18.12
2018-06-01T23:54:10.697Z,18.10
2018-06-01T23:56:38.985Z,18.08
2018-06-01T23:59:07.244Z,18.12
